Time;durP1;ratioP1;P1;durP2;ratioP2;P2;SDS_P1;SDS_P2;PMS_P1;PMS_P2;Temp;Humidity;BMP_temperature;BMP_pressure;BME280_temperature;BME280_humidity;BME280_pressure;Samples;Min_cycle;Max_cycle;Signal;HPM_P1;HPM_P2
2023/07/24 00:02:07;;;;;;;149.25;140.60;;;21.10;99.90;;;;;;5014954;28;20045;-73
2023/07/24 00:04:33;;;;;;;77.80;73.57;;;21.00;99.90;;;;;;5015667;28;20466;-73
2023/07/24 00:07:00;;;;;;;31.48;29.73;;;21.00;99.90;;;;;;5015529;28;20052;-74
2023/07/24 00:09:26;;;;;;;24.13;22.73;;;21.00;99.90;;;;;;5015406;28;20041;-74
2023/07/24 00:11:52;;;;;;;25.85;24.50;;;20.90;99.90;;;;;;5015064;28;20046;-75
2023/07/24 00:14:18;;;;;;;12.30;11.60;;;20.90;99.90;;;;;;5015264;28;20088;-75
2023/07/24 00:16:44;;;;;;;10.57;9.98;;;20.80;99.90;;;;;;5014599;28;20030;-74
2023/07/24 00:19:10;;;;;;;14.73;13.90;;;20.80;99.90;;;;;;5015443;28;20048;-74
2023/07/24 00:21:36;;;;;;;13.40;12.65;;;20.80;99.90;;;;;;5014899;28;20038;-74
2023/07/24 00:24:02;;;;;;;9.75;9.25;;;20.80;99.90;;;;;;5015276;28;20364;-74
2023/07/24 00:26:28;;;;;;;12.10;11.40;;;20.90;99.90;;;;;;5021524;28;20033;-74
2023/07/24 00:28:54;;;;;;;22.90;21.70;;;20.90;99.90;;;;;;5014885;28;20034;-74
2023/07/24 00:31:20;;;;;;;33.00;31.27;;;20.90;99.90;;;;;;5014182;28;20049;-74
2023/07/24 00:33:47;;;;;;;25.52;24.17;;;20.90;99.90;;;;;;5015042;28;20022;-74
2023/07/24 00:36:13;;;;;;;22.45;21.30;;;20.90;99.90;;;;;;5014651;28;20036;-75
2023/07/24 00:38:39;;;;;;;22.98;21.77;;;20.90;99.90;;;;;;5014911;28;20042;-74
2023/07/24 00:41:05;;;;;;;16.92;16.05;;;20.90;99.90;;;;;;5014573;28;20030;-74
2023/07/24 00:43:31;;;;;;;24.52;23.25;;;20.90;99.90;;;;;;5014610;28;20387;-74
2023/07/24 00:45:57;;;;;;;22.27;21.02;;;20.80;99.90;;;;;;5013751;28;20037;-74
2023/07/24 00:48:23;;;;;;;21.60;20.50;;;20.80;99.90;;;;;;5015067;28;20398;-75
2023/07/24 00:50:49;;;;;;;23.30;21.58;;;20.80;99.90;;;;;;5012991;28;20064;-74
2023/07/24 00:53:15;;;;;;;20.13;19.05;;;20.80;99.90;;;;;;5014793;28;20034;-75
2023/07/24 00:55:42;;;;;;;14.77;13.98;;;20.80;99.90;;;;;;5013102;28;20490;-75
2023/07/24 00:58:08;;;;;;;16.85;15.98;;;20.80;99.90;;;;;;5013325;28;20041;-75
2023/07/24 01:00:34;;;;;;;16.90;16.02;;;20.90;99.90;;;;;;5011921;28;20034;-74
2023/07/24 01:03:00;;;;;;;19.10;18.13;;;20.90;99.90;;;;;;5014634;28;20026;-74
2023/07/24 01:05:26;;;;;;;17.10;16.20;;;20.90;99.90;;;;;;5013087;28;20030;-74
2023/07/24 01:07:52;;;;;;;24.30;23.00;;;20.80;99.90;;;;;;5013254;28;20056;-74
2023/07/24 01:10:18;;;;;;;15.90;14.95;;;20.80;99.90;;;;;;5013861;28;20030;-75
2023/07/24 01:13:06;;;;;;;11.80;11.18;;;20.80;99.90;;;;;;5014268;28;20057;-75
2023/07/24 01:15:36;;;;;;;12.98;12.18;;;20.80;99.90;;;;;;5013590;28;20034;-74
2023/07/24 01:18:08;;;;;;;12.88;12.07;;;20.80;99.90;;;;;;5013099;28;20038;-73
2023/07/24 01:20:35;;;;;;;13.07;12.27;;;20.80;99.90;;;;;;5013921;28;20471;-75
2023/07/24 01:23:28;;;;;;;13.48;12.73;;;20.70;99.90;;;;;;5012960;28;20038;-74
2023/07/24 01:25:58;;;;;;;13.32;12.43;;;20.70;99.90;;;;;;4972192;28;20047;-74
2023/07/24 01:28:24;;;;;;;13.45;12.65;;;20.80;99.90;;;;;;4956560;28;20046;-74
2023/07/24 01:30:51;;;;;;;14.90;14.10;;;20.70;99.90;;;;;;4972092;28;20042;-74
2023/07/24 01:33:17;;;;;;;16.98;15.98;;;20.70;99.90;;;;;;4972313;28;20050;-74
2023/07/24 01:35:44;;;;;;;23.90;22.67;;;20.70;99.90;;;;;;4940347;28;20050;-74
2023/07/24 01:38:13;;;;;;;15.40;14.50;;;20.70;99.90;;;;;;4956243;28;20543;-74
2023/07/24 01:40:40;;;;;;;19.38;18.23;;;20.70;99.90;;;;;;4956050;28;20031;-74
2023/07/24 01:43:06;;;;;;;13.60;12.77;;;20.60;99.90;;;;;;4972639;28;20047;-73
2023/07/24 01:45:32;;;;;;;13.27;12.50;;;20.60;99.90;;;;;;4955526;28;20030;-74
2023/07/24 01:47:59;;;;;;;17.38;16.45;;;20.60;99.90;;;;;;4972502;28;20043;-74
2023/07/24 01:50:25;;;;;;;12.00;11.30;;;20.60;99.90;;;;;;4955925;28;20046;-73
2023/07/24 01:52:51;;;;;;;14.15;13.02;;;20.60;99.90;;;;;;4972363;28;20047;-74
2023/07/24 01:55:17;;;;;;;11.55;10.85;;;20.60;99.90;;;;;;4971282;28;20039;-74
2023/07/24 01:57:43;;;;;;;15.38;14.43;;;20.50;99.90;;;;;;4971441;28;20423;-74
2023/07/24 02:00:10;;;;;;;14.95;13.95;;;20.50;99.90;;;;;;4970102;28;20030;-75
2023/07/24 02:02:36;;;;;;;22.73;21.48;;;20.50;99.90;;;;;;4977808;28;20045;-75
2023/07/24 02:05:02;;;;;;;14.00;13.20;;;20.50;99.90;;;;;;5009637;28;20490;-74
2023/07/24 02:07:29;;;;;;;16.88;15.88;;;20.50;99.90;;;;;;5011670;28;20026;-74
2023/07/24 02:09:55;;;;;;;10.48;9.88;;;20.50;99.90;;;;;;5011719;28;20414;-74
2023/07/24 02:12:21;;;;;;;8.43;7.93;;;20.50;99.90;;;;;;5011479;28;20403;-74
2023/07/24 02:14:51;;;;;;;8.07;7.57;;;20.40;99.90;;;;;;5011867;28;20030;-74
2023/07/24 02:17:17;;;;;;;8.07;7.45;;;20.40;99.90;;;;;;5011434;28;20478;-74
2023/07/24 02:19:44;;;;;;;8.25;7.75;;;20.40;99.90;;;;;;5011892;28;20356;-74
2023/07/24 02:22:10;;;;;;;8.85;8.15;;;20.40;99.90;;;;;;5011353;28;20033;-74
2023/07/24 02:24:36;;;;;;;9.10;8.30;;;20.40;99.90;;;;;;5010184;28;20475;-74
2023/07/24 02:27:04;;;;;;;7.75;7.18;;;20.40;99.90;;;;;;5011541;28;20038;-74
2023/07/24 02:29:30;;;;;;;7.72;7.15;;;20.40;99.90;;;;;;5010181;28;20417;-74
2023/07/24 02:31:57;;;;;;;7.88;7.28;;;20.40;99.90;;;;;;5010938;28;20030;-73
2023/07/24 02:34:25;;;;;;;7.50;6.90;;;20.40;99.90;;;;;;5011721;28;20041;-74
2023/07/24 02:36:54;;;;;;;7.75;7.15;;;20.40;99.90;;;;;;5011975;28;20050;-73
2023/07/24 02:39:21;;;;;;;27.42;25.95;;;20.40;99.90;;;;;;5011321;28;20033;-74
2023/07/24 02:41:48;;;;;;;9.50;8.98;;;20.40;99.90;;;;;;5012441;28;20391;-75
2023/07/24 02:44:14;;;;;;;10.77;10.07;;;20.30;99.90;;;;;;5013182;28;20503;-74
2023/07/24 02:46:40;;;;;;;9.45;8.75;;;20.30;99.90;;;;;;5010882;28;20037;-74
2023/07/24 02:49:06;;;;;;;8.63;7.88;;;20.30;99.90;;;;;;5012835;28;20398;-73
2023/07/24 02:51:32;;;;;;;8.43;7.72;;;20.30;99.90;;;;;;5012213;28;20660;-73
2023/07/24 02:53:59;;;;;;;8.95;8.30;;;20.30;99.90;;;;;;5011108;28;20040;-74
2023/07/24 02:56:25;;;;;;;8.70;7.90;;;20.30;99.90;;;;;;5012613;28;20030;-74
2023/07/24 02:58:51;;;;;;;9.07;8.38;;;20.30;99.90;;;;;;5012528;28;20038;-74
2023/07/24 03:01:17;;;;;;;8.77;8.18;;;20.30;99.90;;;;;;5011774;28;20034;-74
2023/07/24 03:03:43;;;;;;;8.70;8.10;;;20.30;99.90;;;;;;5012777;28;20029;-74
2023/07/24 03:06:09;;;;;;;8.77;7.97;;;20.30;99.90;;;;;;5012266;28;20026;-74
2023/07/24 03:08:35;;;;;;;8.68;8.00;;;20.30;99.90;;;;;;5011640;28;20034;-74
2023/07/24 03:11:04;;;;;;;8.85;8.25;;;20.30;99.90;;;;;;5016360;28;20360;-74
2023/07/24 03:13:31;;;;;;;8.70;7.90;;;20.30;99.90;;;;;;5016508;28;20037;-74
2023/07/24 03:15:57;;;;;;;10.85;9.95;;;20.30;99.90;;;;;;5016036;28;20038;-73
2023/07/24 03:18:23;;;;;;;11.10;10.48;;;20.30;99.90;;;;;;5016615;28;20081;-73
2023/07/24 03:20:50;;;;;;;10.68;10.07;;;20.30;99.90;;;;;;5015748;28;20034;-73
2023/07/24 03:23:16;;;;;;;13.10;12.20;;;20.40;99.90;;;;;;5016339;28;20056;-74
2023/07/24 03:25:42;;;;;;;10.85;10.23;;;20.40;99.90;;;;;;5015805;28;20034;-74
2023/07/24 03:28:08;;;;;;;14.90;13.80;;;20.40;99.90;;;;;;5016322;28;20471;-74
2023/07/24 03:30:34;;;;;;;15.60;14.60;;;20.30;99.90;;;;;;5011745;28;20431;-74
2023/07/24 03:33:01;;;;;;;18.85;17.83;;;20.30;99.90;;;;;;4996466;28;20045;-73
2023/07/24 03:35:27;;;;;;;19.45;18.13;;;20.30;99.90;;;;;;5015490;28;20041;-74
2023/07/24 03:37:53;;;;;;;21.33;20.10;;;20.30;99.90;;;;;;5015862;28;20045;-73
2023/07/24 03:40:19;;;;;;;12.32;11.43;;;20.30;99.90;;;;;;5015779;28;20471;-74
2023/07/24 03:42:45;;;;;;;12.02;11.32;;;20.30;99.90;;;;;;5016131;28;20049;-74
2023/07/24 03:45:11;;;;;;;16.23;15.13;;;20.30;99.90;;;;;;5014059;28;20411;-74
2023/07/24 03:47:38;;;;;;;17.67;16.45;;;20.20;99.90;;;;;;5015915;28;20030;-74
2023/07/24 03:50:04;;;;;;;12.90;12.00;;;20.20;99.90;;;;;;5015788;28;20070;-74
2023/07/24 03:52:30;;;;;;;17.83;16.60;;;20.20;99.90;;;;;;5015402;28;20045;-74
2023/07/24 03:54:56;;;;;;;17.20;16.25;;;20.20;99.90;;;;;;5015888;28;20029;-73
2023/07/24 03:57:22;;;;;;;16.30;14.93;;;20.20;99.90;;;;;;5015423;28;20037;-74
2023/07/24 03:59:48;;;;;;;12.90;11.95;;;20.20;99.90;;;;;;5015518;28;20029;-73
2023/07/24 04:02:15;;;;;;;10.80;9.85;;;20.10;99.90;;;;;;5014854;28;20490;-76
2023/07/24 04:04:41;;;;;;;10.45;9.75;;;20.10;99.90;;;;;;5014184;28;20026;-75
2023/07/24 04:07:07;;;;;;;10.32;9.60;;;20.10;99.90;;;;;;5015101;28;20502;-75
2023/07/24 04:09:33;;;;;;;11.90;11.10;;;20.10;99.90;;;;;;5015563;28;20029;-76
2023/07/24 04:11:59;;;;;;;11.35;10.13;;;20.10;99.90;;;;;;5014188;28;20034;-75
2023/07/24 04:14:25;;;;;;;10.23;9.02;;;20.20;99.90;;;;;;5015465;28;20431;-76
2023/07/24 04:16:51;;;;;;;10.20;9.30;;;20.10;99.90;;;;;;5014480;28;20030;-75
2023/07/24 04:19:17;;;;;;;10.20;9.20;;;20.00;99.90;;;;;;5014988;28;20041;-74
2023/07/24 04:21:43;;;;;;;11.85;10.70;;;20.00;99.90;;;;;;5014258;28;20038;-76
2023/07/24 04:24:09;;;;;;;12.63;11.75;;;19.90;99.90;;;;;;5015665;28;20048;-76
2023/07/24 04:26:35;;;;;;;13.13;12.23;;;19.90;99.90;;;;;;5014867;28;20026;-75
2023/07/24 04:29:01;;;;;;;14.35;13.23;;;19.80;99.90;;;;;;5015202;28;20049;-74
2023/07/24 04:31:28;;;;;;;14.38;13.40;;;19.80;99.90;;;;;;5013188;28;20037;-73
2023/07/24 04:33:54;;;;;;;18.70;17.48;;;19.80;99.90;;;;;;5014814;28;20050;-74
2023/07/24 04:36:20;;;;;;;20.38;19.05;;;19.80;99.90;;;;;;5014581;28;20086;-73
2023/07/24 04:38:47;;;;;;;12.55;11.52;;;19.80;99.90;;;;;;5014792;28;20034;-74
2023/07/24 04:41:13;;;;;;;15.77;14.45;;;19.80;99.90;;;;;;5014645;28;20053;-74
2023/07/24 04:43:39;;;;;;;15.10;13.85;;;19.70;99.90;;;;;;5014938;28;20034;-74
2023/07/24 04:46:05;;;;;;;15.68;14.15;;;19.70;99.90;;;;;;5014017;28;20041;-75
2023/07/24 04:48:31;;;;;;;10.68;9.98;;;19.70;99.90;;;;;;5014318;28;20026;-76
2023/07/24 04:50:57;;;;;;;10.55;9.13;;;19.70;99.90;;;;;;5014075;28;20057;-73
2023/07/24 04:53:23;;;;;;;8.52;7.25;;;19.70;99.90;;;;;;5015161;28;20057;-74
2023/07/24 04:55:49;;;;;;;7.38;6.38;;;19.70;99.90;;;;;;5014988;28;20387;-74
2023/07/24 04:58:15;;;;;;;11.15;6.90;;;19.70;99.90;;;;;;5013499;28;20053;-74
2023/07/24 05:00:42;;;;;;;8.90;6.53;;;19.70;99.90;;;;;;5014039;28;20030;-74
2023/07/24 05:03:10;;;;;;;9.77;7.35;;;19.70;99.90;;;;;;5014143;28;20411;-74
2023/07/24 05:05:39;;;;;;;10.27;9.30;;;19.70;99.90;;;;;;5014215;28;20022;-75
2023/07/24 05:08:06;;;;;;;10.05;9.18;;;19.70;99.90;;;;;;5014379;28;20033;-76
2023/07/24 05:10:36;;;;;;;9.52;8.63;;;19.70;99.90;;;;;;5014228;28;20034;-76
2023/07/24 05:13:02;;;;;;;8.95;8.18;;;19.80;99.90;;;;;;5014273;28;20045;-76
2023/07/24 05:15:28;;;;;;;12.13;8.38;;;19.80;99.90;;;;;;5013477;28;20395;-76
2023/07/24 05:17:54;;;;;;;12.27;9.15;;;19.80;99.90;;;;;;5014091;28;20022;-76
2023/07/24 05:20:20;;;;;;;10.25;9.40;;;19.80;99.90;;;;;;5013855;28;20368;-76
2023/07/24 05:22:46;;;;;;;9.75;8.68;;;19.80;99.90;;;;;;5014251;28;20041;-76
2023/07/24 05:25:12;;;;;;;10.02;7.68;;;19.80;99.90;;;;;;5013820;28;20471;-76
2023/07/24 05:27:38;;;;;;;9.80;8.30;;;19.90;99.90;;;;;;5014399;28;20041;-76
2023/07/24 05:30:05;;;;;;;10.25;8.35;;;19.90;99.90;;;;;;5013599;28;20347;-76
2023/07/24 05:32:31;;;;;;;11.23;9.10;;;19.90;99.90;;;;;;5011003;28;20033;-75
2023/07/24 05:34:57;;;;;;;9.18;8.32;;;19.90;99.90;;;;;;5013800;28;20025;-75
2023/07/24 05:37:23;;;;;;;12.70;9.50;;;19.80;99.90;;;;;;5013654;28;20034;-76
2023/07/24 05:39:51;;;;;;;9.55;8.65;;;19.80;99.90;;;;;;5013828;28;20032;-76
2023/07/24 05:42:17;;;;;;;8.75;7.65;;;19.80;99.90;;;;;;5013318;28;20064;-76
2023/07/24 05:44:43;;;;;;;8.13;7.32;;;19.80;99.90;;;;;;5013676;28;20033;-77
2023/07/24 05:47:09;;;;;;;10.63;7.22;;;19.70;99.90;;;;;;5012551;28;20529;-75
2023/07/24 05:49:35;;;;;;;9.38;7.45;;;19.60;99.90;;;;;;5013451;28;20038;-76
2023/07/24 05:52:01;;;;;;;10.15;7.35;;;19.60;99.90;;;;;;5013185;28;20498;-76
2023/07/24 05:54:27;;;;;;;15.13;8.10;;;19.60;99.90;;;;;;5013509;28;20060;-76
2023/07/24 05:56:53;;;;;;;11.73;6.50;;;19.60;99.90;;;;;;5013216;28;20034;-76
2023/07/24 05:59:19;;;;;;;8.50;6.40;;;19.80;99.90;;;;;;5013457;28;20030;-76
2023/07/24 06:01:45;;;;;;;8.63;6.80;;;19.80;99.90;;;;;;5012337;28;20041;-76
2023/07/24 06:04:11;;;;;;;12.27;8.98;;;20.00;99.90;;;;;;5013330;28;20056;-76
2023/07/24 06:06:37;;;;;;;14.60;10.10;;;20.30;99.90;;;;;;5013425;28;20480;-76
2023/07/24 06:09:03;;;;;;;16.02;14.77;;;20.50;99.90;;;;;;5012138;28;20033;-76
2023/07/24 06:11:29;;;;;;;17.40;16.13;;;20.60;99.90;;;;;;5013153;28;20033;-76
2023/07/24 06:13:56;;;;;;;18.25;16.90;;;20.70;99.90;;;;;;5013228;28;20041;-76
2023/07/24 06:16:22;;;;;;;18.52;17.00;;;20.90;99.90;;;;;;5012293;28;20034;-76
2023/07/24 06:18:48;;;;;;;19.30;17.80;;;21.10;99.90;;;;;;5013041;28;20041;-76
2023/07/24 06:21:14;;;;;;;16.40;15.13;;;21.20;99.90;;;;;;5011702;28;20376;-75
2023/07/24 06:23:40;;;;;;;16.48;15.27;;;21.30;99.90;;;;;;5013090;28;20049;-75
2023/07/24 06:26:06;;;;;;;18.75;17.15;;;21.50;99.90;;;;;;5012929;28;20045;-75
2023/07/24 06:28:33;;;;;;;23.10;21.55;;;21.60;99.90;;;;;;5013010;28;20034;-76
2023/07/24 06:30:59;;;;;;;22.25;20.92;;;21.70;99.90;;;;;;5012254;28;20403;-76
2023/07/24 06:33:25;;;;;;;26.23;24.52;;;21.80;99.90;;;;;;5012911;28;20042;-75
2023/07/24 06:35:51;;;;;;;31.02;29.05;;;21.90;99.90;;;;;;5012692;28;20048;-76
2023/07/24 06:38:17;;;;;;;32.97;30.90;;;22.00;99.90;;;;;;5011294;28;20053;-76
2023/07/24 06:40:43;;;;;;;34.33;32.42;;;22.10;99.90;;;;;;5012615;28;20506;-76
2023/07/24 06:43:09;;;;;;;34.10;32.13;;;22.30;99.90;;;;;;5012600;28;20041;-77
2023/07/24 06:45:35;;;;;;;34.92;32.83;;;22.40;99.90;;;;;;5012070;28;20049;-76
2023/07/24 06:48:02;;;;;;;37.22;35.08;;;22.40;99.90;;;;;;5012643;28;20037;-76
2023/07/24 06:50:28;;;;;;;34.92;32.85;;;22.50;99.90;;;;;;5012334;28;20049;-76
2023/07/24 06:52:54;;;;;;;34.97;33.03;;;22.70;99.90;;;;;;5012572;28;20033;-76
2023/07/24 06:55:20;;;;;;;30.90;29.10;;;22.70;99.90;;;;;;5012615;28;20049;-76
2023/07/24 06:57:46;;;;;;;39.83;37.50;;;22.70;99.90;;;;;;5012711;28;20026;-75
2023/07/24 07:00:13;;;;;;;35.35;33.25;;;22.80;99.90;;;;;;5017736;28;20029;-76
2023/07/24 07:02:39;;;;;;;31.88;30.08;;;22.90;99.90;;;;;;5011015;28;20038;-76
2023/07/24 07:05:05;;;;;;;34.90;32.80;;;23.00;99.90;;;;;;5011456;28;20489;-78
2023/07/24 07:07:31;;;;;;;33.47;31.52;;;23.10;99.90;;;;;;5017617;28;20064;-78
2023/07/24 07:09:57;;;;;;;31.35;29.42;;;23.20;99.90;;;;;;5007047;28;20037;-78
2023/07/24 07:12:24;;;;;;;33.85;31.73;;;23.20;99.90;;;;;;5012307;28;20046;-78
2023/07/24 07:14:50;;;;;;;31.35;29.48;;;23.20;99.90;;;;;;5013569;28;20045;-78
2023/07/24 07:17:16;;;;;;;33.03;30.90;;;23.20;99.90;;;;;;5030940;28;20029;-78
2023/07/24 07:19:42;;;;;;;30.25;28.05;;;23.30;99.90;;;;;;5032197;28;20037;-78
2023/07/24 07:22:08;;;;;;;30.50;28.42;;;23.40;99.90;;;;;;5032033;28;20045;-78
2023/07/24 07:24:34;;;;;;;29.92;27.77;;;23.40;99.90;;;;;;5032150;28;20037;-78
2023/07/24 07:27:00;;;;;;;31.73;29.63;;;23.40;99.90;;;;;;5031716;28;20060;-76
2023/07/24 07:29:26;;;;;;;28.05;26.02;;;23.40;99.90;;;;;;5031630;28;20041;-78
2023/07/24 07:31:52;;;;;;;28.88;26.92;;;23.40;99.90;;;;;;5016504;28;20057;-78
2023/07/24 07:34:18;;;;;;;29.52;27.60;;;23.60;99.90;;;;;;5012104;28;20038;-78
2023/07/24 07:36:44;;;;;;;28.80;27.02;;;23.60;99.90;;;;;;5002830;28;20037;-78
2023/07/24 07:39:10;;;;;;;26.00;24.38;;;23.70;99.90;;;;;;4991404;28;20033;-78
2023/07/24 07:41:37;;;;;;;27.27;25.48;;;23.60;99.90;;;;;;5004348;28;20026;-77
2023/07/24 07:44:03;;;;;;;29.52;27.75;;;23.40;99.90;;;;;;5011867;28;20037;-78
2023/07/24 07:46:29;;;;;;;34.38;32.20;;;23.30;99.90;;;;;;5011603;28;20030;-78
2023/07/24 07:48:55;;;;;;;29.52;27.73;;;23.20;99.90;;;;;;5012070;28;20046;-78
2023/07/24 07:51:21;;;;;;;28.27;26.38;;;23.20;99.90;;;;;;5011609;28;20057;-77
2023/07/24 07:53:47;;;;;;;32.00;29.85;;;23.20;99.90;;;;;;5010703;28;20037;-78
2023/07/24 07:56:13;;;;;;;31.75;29.92;;;23.00;99.90;;;;;;5012930;28;20543;-77
2023/07/24 07:58:39;;;;;;;30.85;28.73;;;22.90;99.90;;;;;;5015898;28;20045;-78
2023/07/24 08:01:06;;;;;;;32.90;30.42;;;23.00;99.90;;;;;;5013865;28;20037;-78
2023/07/24 08:03:32;;;;;;;30.77;28.75;;;23.00;99.90;;;;;;5015717;28;20034;-78
2023/07/24 08:05:59;;;;;;;26.70;24.90;;;23.10;99.90;;;;;;5015513;28;20050;-78
2023/07/24 08:08:25;;;;;;;28.30;26.42;;;23.40;99.90;;;;;;5015456;28;20022;-78
2023/07/24 08:10:51;;;;;;;23.52;21.92;;;23.40;99.90;;;;;;5014132;28;20399;-79
2023/07/24 08:13:17;;;;;;;24.58;22.70;;;23.50;99.90;;;;;;5015336;28;20026;-78
2023/07/24 08:15:43;;;;;;;21.98;20.67;;;23.60;99.90;;;;;;5014740;28;20038;-79
2023/07/24 08:18:09;;;;;;;20.15;18.50;;;23.60;99.90;;;;;;5015119;28;20041;-78
2023/07/24 08:20:36;;;;;;;15.85;14.55;;;23.50;99.90;;;;;;5014961;28;20494;-78
2023/07/24 08:23:02;;;;;;;20.33;18.95;;;23.40;99.90;;;;;;5015732;28;20049;-78
2023/07/24 08:25:28;;;;;;;22.52;20.80;;;23.20;99.90;;;;;;5014408;28;20036;-78
2023/07/24 08:27:54;;;;;;;23.40;21.88;;;23.10;99.90;;;;;;5015365;28;20021;-78
2023/07/24 08:30:20;;;;;;;25.00;23.23;;;23.00;99.90;;;;;;5014396;28;20030;-78
2023/07/24 08:32:46;;;;;;;31.85;29.83;;;23.00;99.90;;;;;;5015151;28;20616;-78
2023/07/24 08:35:12;;;;;;;32.15;30.15;;;23.00;99.90;;;;;;5015177;28;20399;-78
2023/07/24 08:37:43;;;;;;;29.58;27.48;;;23.10;99.90;;;;;;5015215;28;20041;-78
2023/07/24 08:40:09;;;;;;;33.63;31.48;;;23.10;99.90;;;;;;5014961;28;20066;-78
2023/07/24 08:42:38;;;;;;;31.80;29.98;;;23.10;99.90;;;;;;4994167;28;20049;-78
2023/07/24 08:45:04;;;;;;;34.28;32.03;;;23.10;99.90;;;;;;4993720;28;20038;-77
2023/07/24 08:47:30;;;;;;;30.98;28.98;;;23.10;99.90;;;;;;5012819;28;20042;-78
2023/07/24 08:49:56;;;;;;;34.05;31.85;;;23.00;99.90;;;;;;5013289;28;20403;-78
2023/07/24 08:52:22;;;;;;;30.98;29.05;;;23.00;99.90;;;;;;4993484;28;20049;-79
2023/07/24 08:54:49;;;;;;;32.42;30.33;;;23.00;99.90;;;;;;4993480;28;20038;-79
2023/07/24 08:57:15;;;;;;;32.17;30.27;;;23.00;99.90;;;;;;5010668;28;20037;-78
2023/07/24 08:59:41;;;;;;;32.25;30.17;;;23.00;99.90;;;;;;5013480;28;20030;-78
2023/07/24 09:02:07;;;;;;;31.30;29.20;;;23.10;99.90;;;;;;5012561;28;20034;-78
2023/07/24 09:04:33;;;;;;;32.40;30.00;;;23.00;99.90;;;;;;5014474;28;20041;-78
2023/07/24 09:06:59;;;;;;;27.30;25.52;;;23.10;99.90;;;;;;5014383;28;20038;-78
2023/07/24 09:09:29;;;;;;;33.50;31.45;;;23.10;99.90;;;;;;5014256;28;20037;-78
2023/07/24 09:11:55;;;;;;;33.33;30.98;;;23.00;99.90;;;;;;5012869;28;20026;-78
2023/07/24 09:14:22;;;;;;;31.23;29.23;;;23.00;99.90;;;;;;5014761;28;20046;-78
2023/07/24 09:16:50;;;;;;;33.97;31.70;;;23.00;99.90;;;;;;5011925;28;20038;-78
2023/07/24 09:19:19;;;;;;;33.95;31.63;;;23.00;99.90;;;;;;5014222;28;20034;-78
2023/07/24 09:21:45;;;;;;;31.38;29.38;;;23.00;99.90;;;;;;5013864;28;20034;-78
2023/07/24 09:24:12;;;;;;;35.67;33.53;;;22.90;99.90;;;;;;5012704;28;20382;-78
2023/07/24 09:26:52;;;;;;;37.85;35.78;;;22.90;99.90;;;;;;5013915;28;20033;-78
2023/07/24 09:29:18;;;;;;;41.60;39.28;;;22.80;99.90;;;;;;5012891;28;20026;-79
2023/07/24 09:31:45;;;;;;;51.03;47.95;;;22.60;99.90;;;;;;5013492;28;20034;-78
2023/07/24 09:34:15;;;;;;;47.95;45.08;;;22.50;99.90;;;;;;5014031;28;20049;-78
2023/07/24 09:36:42;;;;;;;47.55;44.83;;;22.30;99.90;;;;;;5013660;28;20030;-78
2023/07/24 09:39:10;;;;;;;44.88;42.15;;;22.30;99.90;;;;;;5013560;28;20030;-77
2023/07/24 09:41:36;;;;;;;40.67;38.40;;;22.60;99.90;;;;;;5013701;28;20033;-78
2023/07/24 09:44:03;;;;;;;41.60;39.10;;;22.70;99.90;;;;;;5012643;28;20026;-78
2023/07/24 09:46:29;;;;;;;34.47;32.42;;;22.90;99.90;;;;;;5013051;28;20124;-78
2023/07/24 09:48:56;;;;;;;28.98;27.30;;;23.20;99.90;;;;;;5013882;28;20485;-79
2023/07/24 09:51:22;;;;;;;27.30;25.70;;;23.40;99.90;;;;;;5012053;28;20483;-78
2023/07/24 09:54:09;;;;;;;30.25;28.40;;;23.80;99.90;;;;;;5013261;28;20030;-78
2023/07/24 09:56:35;;;;;;;20.88;19.40;;;24.00;99.90;;;;;;5012097;28;20475;-77
2023/07/24 09:59:02;;;;;;;21.02;19.70;;;24.10;99.90;;;;;;5013401;28;20033;-78
2023/07/24 10:01:29;;;;;;;21.90;20.55;;;24.20;99.90;;;;;;5012568;28;20399;-78
2023/07/24 10:03:55;;;;;;;20.80;19.48;;;24.10;99.90;;;;;;5012171;28;20045;-78
2023/07/24 10:06:21;;;;;;;22.98;21.48;;;24.00;99.90;;;;;;5013450;28;20045;-78
2023/07/24 10:08:47;;;;;;;20.30;18.90;;;23.90;99.90;;;;;;5011951;28;20046;-79
2023/07/24 10:11:13;;;;;;;18.60;17.20;;;23.90;99.90;;;;;;5011967;28;20038;-78
2023/07/24 10:13:43;;;;;;;17.33;16.25;;;24.00;99.90;;;;;;5013152;28;20029;-78
2023/07/24 10:16:09;;;;;;;14.45;13.45;;;24.10;99.90;;;;;;5011391;28;20034;-78
2023/07/24 10:18:41;;;;;;;14.60;13.63;;;24.10;99.90;;;;;;5011253;28;20041;-79
2023/07/24 10:21:08;;;;;;;14.02;13.20;;;24.10;99.90;;;;;;5012902;28;20038;-79
2023/07/24 10:23:41;;;;;;;14.80;13.80;;;24.20;99.90;;;;;;5012649;28;20029;-79
2023/07/24 10:26:07;;;;;;;19.63;18.42;;;24.10;99.90;;;;;;5011661;28;20034;-78
2023/07/24 10:28:38;;;;;;;21.67;20.33;;;23.90;99.90;;;;;;5011884;28;20026;-78
2023/07/24 10:31:08;;;;;;;21.25;19.92;;;23.70;99.90;;;;;;5012425;28;20045;-78
2023/07/24 10:33:37;;;;;;;27.20;25.52;;;23.40;99.90;;;;;;5012992;28;20037;-78
2023/07/24 10:36:05;;;;;;;29.17;27.58;;;23.40;99.90;;;;;;5012369;28;20041;-78
2023/07/24 10:38:39;;;;;;;28.05;26.55;;;23.30;99.90;;;;;;4995235;28;20033;-78
2023/07/24 10:41:06;;;;;;;29.08;27.35;;;23.40;99.90;;;;;;5011297;28;20033;-79
2023/07/24 10:43:49;;;;;;;28.40;26.83;;;23.50;99.90;;;;;;5013093;28;20044;-78
2023/07/24 10:46:16;;;;;;;27.90;26.40;;;23.60;99.90;;;;;;5012352;28;20045;-78
2023/07/24 10:48:43;;;;;;;23.55;22.25;;;23.70;99.90;;;;;;5011526;28;20029;-78
2023/07/24 10:51:10;;;;;;;23.38;22.10;;;23.90;99.90;;;;;;5011843;28;20049;-78
2023/07/24 10:53:37;;;;;;;19.48;18.08;;;23.90;99.90;;;;;;5011593;28;20049;-78
2023/07/24 10:56:06;;;;;;;19.05;17.85;;;24.10;99.90;;;;;;5012458;28;20029;-79
2023/07/24 10:58:32;;;;;;;14.38;13.48;;;24.30;99.90;;;;;;5012654;28;20018;-79
2023/07/24 11:00:59;;;;;;;14.30;13.40;;;24.40;99.90;;;;;;5011906;28;20037;-79
2023/07/24 11:03:25;;;;;;;13.63;12.82;;;24.50;99.90;;;;;;5012486;28;20033;-78
2023/07/24 11:05:51;;;;;;;22.35;21.05;;;24.40;99.90;;;;;;5011894;28;20037;-78
2023/07/24 11:08:18;;;;;;;17.73;16.63;;;24.30;99.90;;;;;;5011698;28;20038;-79
2023/07/24 11:10:46;;;;;;;15.05;13.95;;;24.30;99.90;;;;;;5010458;28;20376;-79
2023/07/24 11:13:12;;;;;;;14.02;13.23;;;24.20;99.90;;;;;;5012792;28;20056;-79
2023/07/24 11:15:38;;;;;;;14.25;13.38;;;24.20;99.90;;;;;;5011623;28;20058;-79
2023/07/24 11:18:08;;;;;;;13.93;13.02;;;24.30;99.90;;;;;;5012506;28;20489;-78
2023/07/24 11:20:38;;;;;;;14.05;13.10;;;24.60;99.90;;;;;;5011688;28;20038;-79
2023/07/24 11:23:04;;;;;;;13.52;12.73;;;24.90;99.90;;;;;;5011424;28;20034;-78
2023/07/24 11:25:30;;;;;;;12.80;12.02;;;25.00;99.90;;;;;;5012279;28;20033;-78
2023/07/24 11:27:56;;;;;;;14.15;13.15;;;25.10;99.90;;;;;;5012379;28;20037;-78
2023/07/24 11:30:23;;;;;;;13.00;12.20;;;25.20;99.90;;;;;;5012427;28;20038;-78
2023/07/24 11:32:49;;;;;;;14.80;13.73;;;25.40;99.90;;;;;;5016445;28;20399;-78
2023/07/24 11:35:15;;;;;;;20.83;19.60;;;25.40;99.90;;;;;;5014253;28;20045;-79
2023/07/24 11:37:41;;;;;;;18.92;17.83;;;25.60;99.90;;;;;;5015117;28;20378;-79
2023/07/24 11:40:13;;;;;;;18.92;17.75;;;25.90;99.90;;;;;;5014876;28;20033;-78
2023/07/24 11:42:40;;;;;;;24.33;22.73;;;26.00;99.90;;;;;;5016284;28;20046;-79
2023/07/24 11:45:09;;;;;;;23.90;22.55;;;26.00;99.90;;;;;;5014430;28;20038;-76
2023/07/24 11:48:01;;;;;;;22.05;20.70;;;26.00;99.90;;;;;;5015836;28;20494;-79
2023/07/24 11:50:27;;;;;;;20.67;19.27;;;26.10;99.90;;;;;;4996872;28;20053;-77
2023/07/24 11:52:53;;;;;;;17.50;16.60;;;26.10;99.90;;;;;;5015901;28;20400;-79
2023/07/24 11:55:30;;;;;;;21.20;18.90;;;26.10;99.90;;;;;;5015539;28;20046;-78
2023/07/24 11:57:57;;;;;;;19.88;18.30;;;26.20;99.90;;;;;;5014591;28;20056;-79
2023/07/24 12:00:23;;;;;;;15.90;14.80;;;26.50;99.90;;;;;;5015414;28;20034;-79
2023/07/24 12:02:50;;;;;;;16.30;14.82;;;26.60;99.90;;;;;;5015422;28;20057;-79
2023/07/24 12:05:16;;;;;;;19.48;17.55;;;26.70;99.90;;;;;;5015367;28;20048;-79
2023/07/24 12:07:43;;;;;;;17.67;16.38;;;26.80;99.90;;;;;;5015831;28;20038;-79
2023/07/24 12:10:10;;;;;;;32.22;16.33;;;26.90;99.90;;;;;;5015436;28;20414;-79
2023/07/24 12:12:45;;;;;;;16.00;14.77;;;27.00;99.90;;;;;;5015801;28;20045;-79
2023/07/24 12:15:12;;;;;;;16.33;15.27;;;27.10;99.90;;;;;;5014539;28;20041;-79
2023/07/24 12:17:38;;;;;;;16.75;15.70;;;27.10;99.90;;;;;;5014949;28;20037;-79
2023/07/24 12:20:05;;;;;;;15.88;14.90;;;27.20;99.90;;;;;;5014261;28;20037;-79
2023/07/24 12:22:32;;;;;;;16.95;15.95;;;26.90;99.40;;;;;;5015204;28;20034;-78
2023/07/24 12:24:58;;;;;;;18.23;17.13;;;26.80;99.90;;;;;;5015428;28;20368;-79
2023/07/24 12:27:24;;;;;;;23.92;22.27;;;26.80;99.90;;;;;;5015087;28;20475;-79
2023/07/24 12:29:51;;;;;;;21.83;20.48;;;26.80;99.90;;;;;;5015169;28;20360;-78